Terminal Aerodrome Forecast
Issued by NWS

Home | Current Version | Previous Version | Text Only | Print | Product List | Glossary On
Versions: 1 2 3 4 5 6 7 8 9 10 11 12 13 14 15 16 17 18 19 20 21 22 23 24 25 26
176
FTUS43 KDVN 291141
TAFCID
TAF
KCID 291141Z 2912/3012 33007KT P6SM OVC003
     FM291600 34006KT P6SM BKN010
     FM291900 01008KT P6SM BKN025
     FM292200 03007KT P6SM BKN035
     FM300600 01005KT P6SM SCT015 BKN025
     FM300900 01005KT 3SM BR BKN015=

USA.gov is the U.S. government's official web portal to all federal, state and local government web resources and services.